sensor_id;sensor_type;location;lat;lon;timestamp;P1;durP1;ratioP1;P2;durP2;ratioP2
67602;SDS011;54417;47.454;18.918;2022-07-09T00:03:13;2.58;;;1.50;;
67602;SDS011;54417;47.454;18.918;2022-07-09T00:08:36;1.92;;;1.40;;
67602;SDS011;54417;47.454;18.918;2022-07-09T00:14:01;5.82;;;1.80;;
67602;SDS011;54417;47.454;18.918;2022-07-09T00:19:25;4.10;;;1.73;;
67602;SDS011;54417;47.454;18.918;2022-07-09T00:24:49;2.97;;;1.23;;
67602;SDS011;54417;47.454;18.918;2022-07-09T00:30:14;7.20;;;2.00;;
67602;SDS011;54417;47.454;18.918;2022-07-09T00:35:38;5.75;;;1.30;;
67602;SDS011;54417;47.454;18.918;2022-07-09T00:41:01;5.45;;;1.35;;
67602;SDS011;54417;47.454;18.918;2022-07-09T00:46:26;6.78;;;1.80;;
67602;SDS011;54417;47.454;18.918;2022-07-09T00:51:50;4.80;;;1.38;;
67602;SDS011;54417;47.454;18.918;2022-07-09T00:57:15;6.65;;;2.33;;
67602;SDS011;54417;47.454;18.918;2022-07-09T01:02:42;2.78;;;1.45;;
67602;SDS011;54417;47.454;18.918;2022-07-09T01:08:07;3.92;;;1.20;;
67602;SDS011;54417;47.454;18.918;2022-07-09T01:13:31;4.90;;;1.45;;
67602;SDS011;54417;47.454;18.918;2022-07-09T01:18:56;3.45;;;1.52;;
67602;SDS011;54417;47.454;18.918;2022-07-09T01:24:21;3.03;;;1.52;;
67602;SDS011;54417;47.454;18.918;2022-07-09T01:29:46;5.72;;;1.60;;
67602;SDS011;54417;47.454;18.918;2022-07-09T01:35:11;6.88;;;1.60;;
67602;SDS011;54417;47.454;18.918;2022-07-09T01:40:36;3.00;;;1.20;;
67602;SDS011;54417;47.454;18.918;2022-07-09T01:46:00;6.43;;;1.63;;
67602;SDS011;54417;47.454;18.918;2022-07-09T01:51:24;3.60;;;1.63;;
67602;SDS011;54417;47.454;18.918;2022-07-09T01:56:49;5.22;;;1.70;;
67602;SDS011;54417;47.454;18.918;2022-07-09T02:02:13;4.65;;;1.48;;
67602;SDS011;54417;47.454;18.918;2022-07-09T02:07:36;6.18;;;1.55;;
67602;SDS011;54417;47.454;18.918;2022-07-09T02:13:01;6.63;;;1.58;;
67602;SDS011;54417;47.454;18.918;2022-07-09T02:18:25;6.00;;;1.92;;
67602;SDS011;54417;47.454;18.918;2022-07-09T02:23:49;2.75;;;1.63;;
67602;SDS011;54417;47.454;18.918;2022-07-09T02:29:14;7.20;;;1.67;;
67602;SDS011;54417;47.454;18.918;2022-07-09T02:34:38;3.13;;;1.70;;
67602;SDS011;54417;47.454;18.918;2022-07-09T02:40:02;2.95;;;1.80;;
67602;SDS011;54417;47.454;18.918;2022-07-09T02:45:28;2.97;;;1.63;;
67602;SDS011;54417;47.454;18.918;2022-07-09T02:50:51;4.38;;;1.73;;
67602;SDS011;54417;47.454;18.918;2022-07-09T02:56:15;3.42;;;1.63;;
67602;SDS011;54417;47.454;18.918;2022-07-09T03:01:40;3.40;;;1.80;;
67602;SDS011;54417;47.454;18.918;2022-07-09T03:07:04;2.75;;;1.45;;
67602;SDS011;54417;47.454;18.918;2022-07-09T03:12:28;5.50;;;1.70;;
67602;SDS011;54417;47.454;18.918;2022-07-09T03:17:53;3.38;;;1.58;;
67602;SDS011;54417;47.454;18.918;2022-07-09T03:23:17;2.25;;;1.67;;
67602;SDS011;54417;47.454;18.918;2022-07-09T03:28:40;4.88;;;1.85;;
67602;SDS011;54417;47.454;18.918;2022-07-09T03:34:05;4.95;;;2.17;;
67602;SDS011;54417;47.454;18.918;2022-07-09T03:39:29;5.85;;;2.05;;
67602;SDS011;54417;47.454;18.918;2022-07-09T03:44:53;6.40;;;1.75;;
67602;SDS011;54417;47.454;18.918;2022-07-09T03:50:18;5.43;;;2.05;;
67602;SDS011;54417;47.454;18.918;2022-07-09T03:55:42;4.93;;;1.70;;
67602;SDS011;54417;47.454;18.918;2022-07-09T04:01:06;3.40;;;1.80;;
67602;SDS011;54417;47.454;18.918;2022-07-09T04:06:31;3.05;;;1.45;;
67602;SDS011;54417;47.454;18.918;2022-07-09T04:11:55;4.47;;;1.95;;
67602;SDS011;54417;47.454;18.918;2022-07-09T04:17:18;3.97;;;2.10;;
67602;SDS011;54417;47.454;18.918;2022-07-09T04:22:43;5.63;;;2.28;;
67602;SDS011;54417;47.454;18.918;2022-07-09T04:28:07;4.47;;;2.20;;
67602;SDS011;54417;47.454;18.918;2022-07-09T04:33:31;4.18;;;2.60;;
67602;SDS011;54417;47.454;18.918;2022-07-09T04:38:56;5.25;;;2.00;;
67602;SDS011;54417;47.454;18.918;2022-07-09T04:44:20;3.13;;;1.75;;
67602;SDS011;54417;47.454;18.918;2022-07-09T04:49:43;5.53;;;2.00;;
67602;SDS011;54417;47.454;18.918;2022-07-09T04:55:08;5.05;;;2.33;;
67602;SDS011;54417;47.454;18.918;2022-07-09T05:00:33;4.07;;;2.00;;
67602;SDS011;54417;47.454;18.918;2022-07-09T05:05:57;3.70;;;2.28;;
67602;SDS011;54417;47.454;18.918;2022-07-09T05:11:22;4.68;;;1.90;;
67602;SDS011;54417;47.454;18.918;2022-07-09T05:16:47;5.93;;;1.70;;
67602;SDS011;54417;47.454;18.918;2022-07-09T05:22:11;2.78;;;1.75;;
67602;SDS011;54417;47.454;18.918;2022-07-09T05:27:41;4.57;;;1.90;;
67602;SDS011;54417;47.454;18.918;2022-07-09T05:33:06;5.90;;;1.73;;
67602;SDS011;54417;47.454;18.918;2022-07-09T05:38:30;4.47;;;2.05;;
67602;SDS011;54417;47.454;18.918;2022-07-09T05:43:56;2.25;;;1.70;;
67602;SDS011;54417;47.454;18.918;2022-07-09T05:49:19;6.25;;;2.10;;
67602;SDS011;54417;47.454;18.918;2022-07-09T05:54:43;3.50;;;1.70;;
67602;SDS011;54417;47.454;18.918;2022-07-09T06:00:09;6.72;;;2.00;;
67602;SDS011;54417;47.454;18.918;2022-07-09T06:05:33;6.90;;;1.88;;
67602;SDS011;54417;47.454;18.918;2022-07-09T06:10:57;7.65;;;1.77;;
67602;SDS011;54417;47.454;18.918;2022-07-09T06:16:22;4.43;;;2.00;;
67602;SDS011;54417;47.454;18.918;2022-07-09T06:21:46;2.63;;;1.65;;
67602;SDS011;54417;47.454;18.918;2022-07-09T06:27:09;3.67;;;1.98;;
67602;SDS011;54417;47.454;18.918;2022-07-09T06:32:35;8.77;;;2.00;;
67602;SDS011;54417;47.454;18.918;2022-07-09T06:37:59;7.32;;;1.95;;
67602;SDS011;54417;47.454;18.918;2022-07-09T06:43:23;3.60;;;1.85;;
67602;SDS011;54417;47.454;18.918;2022-07-09T06:48:49;4.47;;;1.95;;
67602;SDS011;54417;47.454;18.918;2022-07-09T06:54:13;5.88;;;2.00;;
67602;SDS011;54417;47.454;18.918;2022-07-09T06:59:37;4.00;;;1.88;;
67602;SDS011;54417;47.454;18.918;2022-07-09T07:05:02;3.17;;;1.98;;
67602;SDS011;54417;47.454;18.918;2022-07-09T07:10:27;5.05;;;2.10;;
67602;SDS011;54417;47.454;18.918;2022-07-09T07:15:50;3.75;;;1.63;;
67602;SDS011;54417;47.454;18.918;2022-07-09T07:21:15;3.92;;;1.67;;
67602;SDS011;54417;47.454;18.918;2022-07-09T07:26:39;3.75;;;1.67;;
67602;SDS011;54417;47.454;18.918;2022-07-09T07:32:03;4.97;;;1.98;;
67602;SDS011;54417;47.454;18.918;2022-07-09T07:37:28;2.28;;;1.48;;
67602;SDS011;54417;47.454;18.918;2022-07-09T07:42:53;5.93;;;1.80;;
67602;SDS011;54417;47.454;18.918;2022-07-09T07:48:17;2.40;;;1.30;;
67602;SDS011;54417;47.454;18.918;2022-07-09T07:53:42;5.55;;;1.90;;
67602;SDS011;54417;47.454;18.918;2022-07-09T07:59:06;5.50;;;1.50;;
67602;SDS011;54417;47.454;18.918;2022-07-09T08:04:30;4.13;;;1.65;;
67602;SDS011;54417;47.454;18.918;2022-07-09T08:09:55;5.55;;;1.90;;
67602;SDS011;54417;47.454;18.918;2022-07-09T08:15:18;4.32;;;1.70;;
67602;SDS011;54417;47.454;18.918;2022-07-09T08:20:43;4.28;;;1.60;;
67602;SDS011;54417;47.454;18.918;2022-07-09T08:26:08;4.30;;;1.85;;
67602;SDS011;54417;47.454;18.918;2022-07-09T08:31:31;2.67;;;1.40;;
67602;SDS011;54417;47.454;18.918;2022-07-09T08:36:55;4.13;;;1.33;;
67602;SDS011;54417;47.454;18.918;2022-07-09T08:42:20;4.35;;;1.30;;
67602;SDS011;54417;47.454;18.918;2022-07-09T08:47:44;3.42;;;1.70;;
67602;SDS011;54417;47.454;18.918;2022-07-09T08:53:08;1.40;;;0.93;;
67602;SDS011;54417;47.454;18.918;2022-07-09T08:58:34;4.47;;;1.52;;
67602;SDS011;54417;47.454;18.918;2022-07-09T09:03:59;1.88;;;1.10;;
67602;SDS011;54417;47.454;18.918;2022-07-09T09:09:24;3.08;;;1.20;;
67602;SDS011;54417;47.454;18.918;2022-07-09T09:14:49;2.20;;;1.42;;
67602;SDS011;54417;47.454;18.918;2022-07-09T09:20:13;3.33;;;1.75;;
67602;SDS011;54417;47.454;18.918;2022-07-09T09:25:38;6.40;;;1.42;;
67602;SDS011;54417;47.454;18.918;2022-07-09T09:31:16;2.90;;;1.48;;
67602;SDS011;54417;47.454;18.918;2022-07-09T09:42:06;2.50;;;1.33;;
67602;SDS011;54417;47.454;18.918;2022-07-09T09:47:37;3.10;;;1.08;;
67602;SDS011;54417;47.454;18.918;2022-07-09T09:53:01;4.00;;;1.13;;
67602;SDS011;54417;47.454;18.918;2022-07-09T09:58:26;3.63;;;1.10;;
67602;SDS011;54417;47.454;18.918;2022-07-09T10:03:51;3.90;;;1.30;;
67602;SDS011;54417;47.454;18.918;2022-07-09T10:09:16;2.65;;;0.85;;
67602;SDS011;54417;47.454;18.918;2022-07-09T10:14:41;2.92;;;1.05;;
67602;SDS011;54417;47.454;18.918;2022-07-09T10:20:07;2.20;;;1.20;;
67602;SDS011;54417;47.454;18.918;2022-07-09T10:25:41;1.67;;;1.17;;
67602;SDS011;54417;47.454;18.918;2022-07-09T10:31:08;2.67;;;1.55;;
67602;SDS011;54417;47.454;18.918;2022-07-09T10:36:36;4.10;;;1.38;;
67602;SDS011;54417;47.454;18.918;2022-07-09T10:42:00;1.15;;;1.00;;
67602;SDS011;54417;47.454;18.918;2022-07-09T10:47:35;4.00;;;1.73;;
67602;SDS011;54417;47.454;18.918;2022-07-09T10:53:01;4.70;;;1.10;;
67602;SDS011;54417;47.454;18.918;2022-07-09T10:58:25;2.80;;;1.15;;
67602;SDS011;54417;47.454;18.918;2022-07-09T11:03:52;2.38;;;1.23;;
67602;SDS011;54417;47.454;18.918;2022-07-09T11:09:18;3.75;;;0.90;;
67602;SDS011;54417;47.454;18.918;2022-07-09T11:14:45;7.07;;;1.05;;
67602;SDS011;54417;47.454;18.918;2022-07-09T11:20:10;1.80;;;1.00;;
67602;SDS011;54417;47.454;18.918;2022-07-09T11:25:35;2.42;;;1.10;;
67602;SDS011;54417;47.454;18.918;2022-07-09T11:31:00;2.05;;;1.00;;
67602;SDS011;54417;47.454;18.918;2022-07-09T11:36:24;3.60;;;1.13;;
67602;SDS011;54417;47.454;18.918;2022-07-09T11:42:00;1.65;;;0.90;;
67602;SDS011;54417;47.454;18.918;2022-07-09T11:47:34;3.80;;;0.90;;
67602;SDS011;54417;47.454;18.918;2022-07-09T11:53:00;4.30;;;0.75;;
67602;SDS011;54417;47.454;18.918;2022-07-09T11:58:25;2.67;;;0.80;;
67602;SDS011;54417;47.454;18.918;2022-07-09T12:03:49;6.63;;;0.70;;
67602;SDS011;54417;47.454;18.918;2022-07-09T12:09:13;2.92;;;0.70;;
67602;SDS011;54417;47.454;18.918;2022-07-09T12:14:40;2.58;;;1.05;;
67602;SDS011;54417;47.454;18.918;2022-07-09T12:20:04;1.45;;;0.68;;
67602;SDS011;54417;47.454;18.918;2022-07-09T12:25:31;1.35;;;0.77;;
67602;SDS011;54417;47.454;18.918;2022-07-09T12:30:56;1.58;;;0.90;;
67602;SDS011;54417;47.454;18.918;2022-07-09T12:36:20;2.25;;;0.70;;
67602;SDS011;54417;47.454;18.918;2022-07-09T12:42:04;0.77;;;0.55;;
67602;SDS011;54417;47.454;18.918;2022-07-09T12:47:29;1.65;;;0.82;;
67602;SDS011;54417;47.454;18.918;2022-07-09T12:52:53;2.35;;;0.95;;
67602;SDS011;54417;47.454;18.918;2022-07-09T12:58:16;1.48;;;0.70;;
67602;SDS011;54417;47.454;18.918;2022-07-09T13:03:41;3.38;;;0.80;;
67602;SDS011;54417;47.454;18.918;2022-07-09T13:09:25;8.00;;;0.77;;
67602;SDS011;54417;47.454;18.918;2022-07-09T13:14:49;0.90;;;0.60;;
67602;SDS011;54417;47.454;18.918;2022-07-09T13:20:21;1.95;;;0.50;;
67602;SDS011;54417;47.454;18.918;2022-07-09T13:25:45;0.80;;;0.70;;
67602;SDS011;54417;47.454;18.918;2022-07-09T13:31:09;0.60;;;0.60;;
67602;SDS011;54417;47.454;18.918;2022-07-09T13:36:35;1.15;;;0.50;;
67602;SDS011;54417;47.454;18.918;2022-07-09T13:41:58;1.25;;;0.60;;
67602;SDS011;54417;47.454;18.918;2022-07-09T13:47:22;1.00;;;0.60;;
67602;SDS011;54417;47.454;18.918;2022-07-09T13:52:47;1.27;;;0.60;;
67602;SDS011;54417;47.454;18.918;2022-07-09T13:58:11;2.13;;;0.70;;
67602;SDS011;54417;47.454;18.918;2022-07-09T14:03:35;0.80;;;0.50;;
67602;SDS011;54417;47.454;18.918;2022-07-09T14:09:01;1.45;;;0.70;;
67602;SDS011;54417;47.454;18.918;2022-07-09T14:14:24;2.85;;;0.73;;
67602;SDS011;54417;47.454;18.918;2022-07-09T14:19:48;2.63;;;0.93;;
67602;SDS011;54417;47.454;18.918;2022-07-09T14:25:13;2.88;;;0.80;;
67602;SDS011;54417;47.454;18.918;2022-07-09T14:30:40;0.70;;;0.70;;
67602;SDS011;54417;47.454;18.918;2022-07-09T14:36:04;1.63;;;0.80;;
67602;SDS011;54417;47.454;18.918;2022-07-09T14:41:30;1.73;;;0.80;;
67602;SDS011;54417;47.454;18.918;2022-07-09T14:46:54;2.20;;;0.70;;
67602;SDS011;54417;47.454;18.918;2022-07-09T14:52:20;3.63;;;1.08;;
67602;SDS011;54417;47.454;18.918;2022-07-09T14:57:45;1.05;;;0.68;;
67602;SDS011;54417;47.454;18.918;2022-07-09T15:03:09;3.50;;;0.80;;
67602;SDS011;54417;47.454;18.918;2022-07-09T15:08:33;0.93;;;0.60;;
67602;SDS011;54417;47.454;18.918;2022-07-09T15:13:58;1.13;;;0.70;;
67602;SDS011;54417;47.454;18.918;2022-07-09T15:19:22;2.03;;;0.70;;
67602;SDS011;54417;47.454;18.918;2022-07-09T15:24:45;1.42;;;0.70;;
67602;SDS011;54417;47.454;18.918;2022-07-09T15:30:11;0.75;;;0.73;;
67602;SDS011;54417;47.454;18.918;2022-07-09T15:35:34;2.25;;;1.00;;
67602;SDS011;54417;47.454;18.918;2022-07-09T15:46:34;0.97;;;0.90;;
67602;SDS011;54417;47.454;18.918;2022-07-09T15:51:58;2.05;;;1.13;;
67602;SDS011;54417;47.454;18.918;2022-07-09T15:57:22;1.45;;;0.93;;
67602;SDS011;54417;47.454;18.918;2022-07-09T16:02:47;3.38;;;1.00;;
67602;SDS011;54417;47.454;18.918;2022-07-09T16:08:11;3.53;;;1.00;;
67602;SDS011;54417;47.454;18.918;2022-07-09T16:13:35;1.20;;;1.10;;
67602;SDS011;54417;47.454;18.918;2022-07-09T16:19:00;2.20;;;0.88;;
67602;SDS011;54417;47.454;18.918;2022-07-09T16:24:24;2.45;;;0.88;;
67602;SDS011;54417;47.454;18.918;2022-07-09T16:29:47;0.90;;;0.85;;
67602;SDS011;54417;47.454;18.918;2022-07-09T16:35:12;1.48;;;1.05;;
67602;SDS011;54417;47.454;18.918;2022-07-09T16:40:36;2.55;;;0.80;;
67602;SDS011;54417;47.454;18.918;2022-07-09T16:46:01;2.08;;;1.00;;
67602;SDS011;54417;47.454;18.918;2022-07-09T16:51:32;2.75;;;1.27;;
67602;SDS011;54417;47.454;18.918;2022-07-09T16:56:55;4.40;;;1.13;;
67602;SDS011;54417;47.454;18.918;2022-07-09T17:02:19;1.67;;;0.90;;
67602;SDS011;54417;47.454;18.918;2022-07-09T17:07:44;2.70;;;0.93;;
67602;SDS011;54417;47.454;18.918;2022-07-09T17:13:08;1.63;;;0.98;;
67602;SDS011;54417;47.454;18.918;2022-07-09T17:18:32;1.02;;;0.90;;
67602;SDS011;54417;47.454;18.918;2022-07-09T17:23:58;7.00;;;0.80;;
67602;SDS011;54417;47.454;18.918;2022-07-09T17:29:22;1.20;;;0.80;;
67602;SDS011;54417;47.454;18.918;2022-07-09T17:34:45;4.55;;;1.13;;
67602;SDS011;54417;47.454;18.918;2022-07-09T17:40:11;3.40;;;0.85;;
67602;SDS011;54417;47.454;18.918;2022-07-09T17:45:35;4.40;;;0.80;;
67602;SDS011;54417;47.454;18.918;2022-07-09T17:50:59;0.82;;;0.82;;
67602;SDS011;54417;47.454;18.918;2022-07-09T17:56:24;1.33;;;0.75;;
67602;SDS011;54417;47.454;18.918;2022-07-09T18:01:48;1.75;;;1.00;;
67602;SDS011;54417;47.454;18.918;2022-07-09T18:07:11;2.22;;;0.80;;
67602;SDS011;54417;47.454;18.918;2022-07-09T18:12:36;4.60;;;0.90;;
67602;SDS011;54417;47.454;18.918;2022-07-09T18:18:00;1.67;;;1.13;;
67602;SDS011;54417;47.454;18.918;2022-07-09T18:23:29;4.70;;;1.03;;
67602;SDS011;54417;47.454;18.918;2022-07-09T18:28:55;7.72;;;1.42;;
67602;SDS011;54417;47.454;18.918;2022-07-09T18:34:18;2.63;;;1.15;;
67602;SDS011;54417;47.454;18.918;2022-07-09T18:39:42;2.17;;;0.80;;
67602;SDS011;54417;47.454;18.918;2022-07-09T18:45:08;0.90;;;0.90;;
67602;SDS011;54417;47.454;18.918;2022-07-09T18:50:32;2.90;;;0.95;;
67602;SDS011;54417;47.454;18.918;2022-07-09T18:55:56;1.42;;;0.90;;
67602;SDS011;54417;47.454;18.918;2022-07-09T19:01:21;2.72;;;2.10;;
67602;SDS011;54417;47.454;18.918;2022-07-09T19:06:45;1.10;;;0.80;;
67602;SDS011;54417;47.454;18.918;2022-07-09T19:12:08;2.30;;;1.05;;
67602;SDS011;54417;47.454;18.918;2022-07-09T19:17:34;6.63;;;1.10;;
67602;SDS011;54417;47.454;18.918;2022-07-09T19:22:58;1.15;;;1.02;;
67602;SDS011;54417;47.454;18.918;2022-07-09T19:28:22;3.45;;;1.23;;
67602;SDS011;54417;47.454;18.918;2022-07-09T19:33:47;1.73;;;1.02;;
67602;SDS011;54417;47.454;18.918;2022-07-09T19:39:24;1.40;;;1.00;;
67602;SDS011;54417;47.454;18.918;2022-07-09T19:44:48;1.63;;;1.10;;
67602;SDS011;54417;47.454;18.918;2022-07-09T19:50:16;1.90;;;1.17;;
67602;SDS011;54417;47.454;18.918;2022-07-09T19:55:40;1.85;;;1.10;;
67602;SDS011;54417;47.454;18.918;2022-07-09T20:01:05;1.48;;;1.17;;
67602;SDS011;54417;47.454;18.918;2022-07-09T20:06:30;3.15;;;1.30;;
67602;SDS011;54417;47.454;18.918;2022-07-09T20:11:54;2.15;;;1.20;;
67602;SDS011;54417;47.454;18.918;2022-07-09T20:17:18;4.00;;;1.50;;
67602;SDS011;54417;47.454;18.918;2022-07-09T20:22:43;3.38;;;1.50;;
67602;SDS011;54417;47.454;18.918;2022-07-09T20:28:07;2.45;;;1.35;;
67602;SDS011;54417;47.454;18.918;2022-07-09T20:33:31;4.10;;;1.20;;
67602;SDS011;54417;47.454;18.918;2022-07-09T20:39:02;8.48;;;3.47;;
67602;SDS011;54417;47.454;18.918;2022-07-09T20:44:26;7.07;;;3.40;;
67602;SDS011;54417;47.454;18.918;2022-07-09T20:49:50;13.00;;;6.43;;
67602;SDS011;54417;47.454;18.918;2022-07-09T20:55:15;17.83;;;10.38;;
67602;SDS011;54417;47.454;18.918;2022-07-09T21:00:39;13.00;;;7.20;;
67602;SDS011;54417;47.454;18.918;2022-07-09T21:06:02;11.07;;;5.72;;
67602;SDS011;54417;47.454;18.918;2022-07-09T21:11:28;6.55;;;2.30;;
67602;SDS011;54417;47.454;18.918;2022-07-09T21:16:51;1.42;;;0.80;;
67602;SDS011;54417;47.454;18.918;2022-07-09T21:22:34;6.95;;;1.23;;
67602;SDS011;54417;47.454;18.918;2022-07-09T21:28:00;1.40;;;1.10;;
67602;SDS011;54417;47.454;18.918;2022-07-09T21:33:23;3.58;;;0.80;;
67602;SDS011;54417;47.454;18.918;2022-07-09T21:38:47;2.47;;;1.13;;
67602;SDS011;54417;47.454;18.918;2022-07-09T21:44:12;1.88;;;0.98;;
67602;SDS011;54417;47.454;18.918;2022-07-09T21:49:36;1.65;;;1.00;;
67602;SDS011;54417;47.454;18.918;2022-07-09T21:55:00;5.07;;;1.02;;
67602;SDS011;54417;47.454;18.918;2022-07-09T22:06:10;1.08;;;1.00;;
67602;SDS011;54417;47.454;18.918;2022-07-09T22:11:35;2.58;;;0.80;;
67602;SDS011;54417;47.454;18.918;2022-07-09T22:17:00;1.90;;;0.93;;
67602;SDS011;54417;47.454;18.918;2022-07-09T22:22:24;5.75;;;1.20;;
67602;SDS011;54417;47.454;18.918;2022-07-09T22:27:48;1.13;;;0.88;;
67602;SDS011;54417;47.454;18.918;2022-07-09T22:33:13;1.25;;;1.00;;
67602;SDS011;54417;47.454;18.918;2022-07-09T22:38:37;3.72;;;0.93;;
67602;SDS011;54417;47.454;18.918;2022-07-09T22:44:01;2.95;;;1.17;;
67602;SDS011;54417;47.454;18.918;2022-07-09T22:49:27;3.17;;;0.80;;
67602;SDS011;54417;47.454;18.918;2022-07-09T22:54:51;0.63;;;0.63;;
67602;SDS011;54417;47.454;18.918;2022-07-09T23:00:15;0.98;;;0.82;;
67602;SDS011;54417;47.454;18.918;2022-07-09T23:05:41;8.88;;;0.80;;
67602;SDS011;54417;47.454;18.918;2022-07-09T23:11:04;1.30;;;0.80;;
67602;SDS011;54417;47.454;18.918;2022-07-09T23:16:28;0.80;;;0.80;;
67602;SDS011;54417;47.454;18.918;2022-07-09T23:21:53;0.70;;;0.70;;
67602;SDS011;54417;47.454;18.918;2022-07-09T23:27:17;1.02;;;0.65;;
67602;SDS011;54417;47.454;18.918;2022-07-09T23:32:40;1.10;;;0.80;;
67602;SDS011;54417;47.454;18.918;2022-07-09T23:38:06;0.95;;;0.70;;
67602;SDS011;54417;47.454;18.918;2022-07-09T23:43:29;0.60;;;0.60;;
67602;SDS011;54417;47.454;18.918;2022-07-09T23:48:53;0.70;;;0.70;;
67602;SDS011;54417;47.454;18.918;2022-07-09T23:54:18;1.05;;;0.73;;
67602;SDS011;54417;47.454;18.918;2022-07-09T23:59:42;0.60;;;0.60;;
